createdAt,value
2022-11-25T00:00:14.272Z,33.15
2022-11-25T00:00:45.928Z,33.34
2022-11-25T00:01:18.351Z,33.09
2022-11-25T00:01:49.897Z,33.12
2022-11-25T00:02:21.626Z,33.17
2022-11-25T00:02:53.402Z,33.05
2022-11-25T00:03:25.009Z,33.37
2022-11-25T00:03:56.882Z,33.14
2022-11-25T00:04:28.424Z,33.13
2022-11-25T00:04:59.926Z,33.11
2022-11-25T00:05:31.458Z,33.20
2022-11-25T00:06:14.613Z,33.06
2022-11-25T00:06:46.163Z,33.38
2022-11-25T00:07:17.755Z,33.27
2022-11-25T00:07:49.399Z,32.95
2022-11-25T00:08:20.965Z,32.96
2022-11-25T00:09:01.651Z,33.18
2022-11-25T00:09:33.126Z,33.02
2022-11-25T00:10:05.536Z,33.20
2022-11-25T00:10:37.069Z,33.11
2022-11-25T00:11:08.475Z,33.14
2022-11-25T00:11:40.761Z,33.06
2022-11-25T00:12:12.172Z,33.29
2022-11-25T00:12:43.716Z,33.12
2022-11-25T00:13:15.212Z,32.97
2022-11-25T00:13:46.841Z,33.10
2022-11-25T00:14:18.295Z,33.22
2022-11-25T00:14:49.791Z,33.03
2022-11-25T00:15:21.294Z,33.02
2022-11-25T00:15:52.744Z,32.87
2022-11-25T00:16:24.472Z,33.25
2022-11-25T00:16:56.127Z,32.96
2022-11-25T00:17:27.715Z,33.13
2022-11-25T00:17:59.243Z,32.98
2022-11-25T00:18:30.900Z,33.19
2022-11-25T00:19:02.530Z,33.25
2022-11-25T00:19:34.082Z,33.08
2022-11-25T00:20:05.880Z,32.81
2022-11-25T00:20:37.548Z,32.82
2022-11-25T00:21:09.643Z,33.04
2022-11-25T00:21:41.126Z,33.10
2022-11-25T00:22:12.695Z,32.75
2022-11-25T00:22:44.278Z,32.79
2022-11-25T00:23:15.713Z,32.84
2022-11-25T00:23:53.736Z,32.82
2022-11-25T00:24:25.234Z,33.13
2022-11-25T00:24:56.738Z,32.98
2022-11-25T00:25:28.282Z,32.98
2022-11-25T00:26:05.799Z,32.93
2022-11-25T00:26:37.214Z,32.72
2022-11-25T00:27:08.812Z,33.03
2022-11-25T00:27:40.441Z,32.83
2022-11-25T00:28:11.933Z,32.80
2022-11-25T00:28:44.070Z,32.84
2022-11-25T00:29:15.563Z,32.89
2022-11-25T00:29:47.047Z,32.91
2022-11-25T00:30:18.583Z,32.84
2022-11-25T00:30:50.051Z,32.79
2022-11-25T00:31:24.257Z,32.79
2022-11-25T00:31:55.866Z,33.17
2022-11-25T00:32:27.402Z,32.79
2022-11-25T00:32:58.815Z,32.74
2022-11-25T00:33:30.303Z,33.01
2022-11-25T00:34:02.108Z,33.17
2022-11-25T00:34:33.949Z,33.11
2022-11-25T00:35:05.718Z,32.99
2022-11-25T00:35:37.292Z,33.16
2022-11-25T00:36:22.285Z,32.84
2022-11-25T00:36:53.839Z,32.77
2022-11-25T00:37:25.375Z,33.05
2022-11-25T00:37:56.865Z,33.22
2022-11-25T00:38:28.365Z,32.95
2022-11-25T00:39:03.750Z,32.75
2022-11-25T00:39:35.169Z,32.65
2022-11-25T00:40:07.007Z,32.71
2022-11-25T00:40:38.487Z,32.83
2022-11-25T00:41:10.151Z,33.21
2022-11-25T00:41:41.612Z,32.71
2022-11-25T00:42:13.073Z,32.86
2022-11-25T00:42:44.652Z,33.09
2022-11-25T00:43:16.017Z,32.95
2022-11-25T00:43:47.479Z,32.84
2022-11-25T00:44:19.336Z,32.98
2022-11-25T00:44:50.878Z,32.83
2022-11-25T00:45:22.353Z,33.07
2022-11-25T00:45:53.847Z,32.79
2022-11-25T00:46:25.325Z,33.10
2022-11-25T00:46:56.900Z,32.70
2022-11-25T00:47:28.370Z,32.78
2022-11-25T00:47:59.838Z,32.75
2022-11-25T00:48:31.300Z,32.76
2022-11-25T00:49:02.845Z,32.72
2022-11-25T00:49:34.338Z,32.82
2022-11-25T00:50:06.036Z,32.80
2022-11-25T00:50:37.479Z,32.74
2022-11-25T00:51:08.937Z,32.80
2022-11-25T00:51:40.483Z,32.72
2022-11-25T00:52:21.585Z,32.72
2022-11-25T00:52:53.051Z,32.96
2022-11-25T00:53:24.576Z,32.75
2022-11-25T00:53:58.966Z,33.00
2022-11-25T00:54:30.821Z,32.79
2022-11-25T00:55:02.231Z,32.75
2022-11-25T00:55:33.904Z,32.72
2022-11-25T00:56:05.745Z,32.67
2022-11-25T00:56:37.204Z,32.76
2022-11-25T00:57:08.680Z,32.79
2022-11-25T00:57:40.171Z,32.64
2022-11-25T00:58:11.772Z,32.70
2022-11-25T00:58:43.417Z,32.67
2022-11-25T00:59:14.934Z,32.89
2022-11-25T00:59:46.525Z,32.66
2022-11-25T01:00:18.231Z,32.75
2022-11-25T01:00:49.733Z,32.75
2022-11-25T01:01:21.368Z,32.71
2022-11-25T01:01:53.098Z,33.04
2022-11-25T01:02:24.638Z,33.10
2022-11-25T01:02:56.203Z,32.89
2022-11-25T01:03:27.706Z,32.76
2022-11-25T01:03:59.221Z,32.63
2022-11-25T01:04:30.764Z,32.91
2022-11-25T01:05:02.171Z,32.71
2022-11-25T01:05:33.838Z,32.77
2022-11-25T01:06:05.815Z,32.70
2022-11-25T01:06:37.314Z,33.08
2022-11-25T01:07:08.861Z,32.68
2022-11-25T01:07:40.460Z,32.96
2022-11-25T01:08:11.979Z,32.89
2022-11-25T01:08:43.461Z,32.86
2022-11-25T01:09:15.145Z,32.69
2022-11-25T01:09:47.297Z,32.70
2022-11-25T01:10:18.744Z,32.79
2022-11-25T01:10:55.069Z,32.67
2022-11-25T01:11:26.560Z,32.75
2022-11-25T01:11:58.045Z,32.65
2022-11-25T01:12:29.611Z,32.58
2022-11-25T01:13:01.191Z,32.62
2022-11-25T01:13:32.770Z,32.95
2022-11-25T01:14:04.263Z,32.58
2022-11-25T01:14:36.196Z,32.67
2022-11-25T01:15:08.409Z,32.85
2022-11-25T01:15:39.910Z,32.76
2022-11-25T01:16:12.139Z,32.85
2022-11-25T01:16:43.809Z,32.51
2022-11-25T01:17:15.343Z,32.48
2022-11-25T01:17:46.868Z,32.76
2022-11-25T01:18:18.374Z,32.72
2022-11-25T01:18:49.819Z,32.45
2022-11-25T01:19:21.334Z,32.72
2022-11-25T01:19:52.816Z,32.69
2022-11-25T01:20:24.334Z,32.65
2022-11-25T01:20:55.864Z,32.47
2022-11-25T01:21:28.385Z,32.76
2022-11-25T01:21:59.905Z,32.40
2022-11-25T01:22:31.363Z,32.39
2022-11-25T01:23:02.905Z,32.49
2022-11-25T01:23:34.446Z,32.69
2022-11-25T01:24:06.065Z,32.60
2022-11-25T01:24:37.783Z,32.44
2022-11-25T01:25:09.617Z,32.73
2022-11-25T01:25:41.106Z,32.68
2022-11-25T01:26:13.345Z,32.47
2022-11-25T01:26:44.839Z,32.64
2022-11-25T01:27:16.404Z,32.38
2022-11-25T01:27:47.979Z,32.43
2022-11-25T01:28:19.426Z,32.46
2022-11-25T01:28:54.986Z,32.50
2022-11-25T01:29:26.476Z,32.57
2022-11-25T01:29:57.928Z,32.63
2022-11-25T01:30:29.499Z,32.67
2022-11-25T01:31:01.681Z,32.71
2022-11-25T01:31:34.043Z,32.60
2022-11-25T01:32:05.544Z,32.35
2022-11-25T01:32:37.153Z,32.78
2022-11-25T01:33:08.585Z,32.31
2022-11-25T01:33:40.138Z,32.60
2022-11-25T01:34:14.426Z,32.54
2022-11-25T01:34:45.966Z,32.65
2022-11-25T01:35:17.477Z,32.46
2022-11-25T01:35:48.952Z,32.33
2022-11-25T01:36:20.408Z,32.37
2022-11-25T01:36:51.883Z,32.29
2022-11-25T01:37:23.344Z,32.33
2022-11-25T01:37:54.903Z,32.38
2022-11-25T01:38:26.359Z,32.41
2022-11-25T01:38:58.546Z,32.41
2022-11-25T01:39:32.910Z,32.56
2022-11-25T01:40:05.131Z,32.33
2022-11-25T01:40:36.663Z,32.33
2022-11-25T01:41:09.637Z,32.45
2022-11-25T01:41:41.186Z,32.64
2022-11-25T01:42:12.714Z,32.52
2022-11-25T01:42:44.582Z,32.43
2022-11-25T01:43:16.057Z,32.29
2022-11-25T01:44:06.065Z,32.30
2022-11-25T01:44:38.551Z,32.39
2022-11-25T01:45:33.053Z,32.72
2022-11-25T01:46:07.375Z,32.49
2022-11-25T01:46:43.201Z,32.38
2022-11-25T01:47:14.696Z,32.33
2022-11-25T01:47:46.168Z,32.38
2022-11-25T01:48:29.294Z,32.29
2022-11-25T01:49:01.660Z,32.37
2022-11-25T01:50:05.358Z,32.25
2022-11-25T01:50:36.820Z,32.42
2022-11-25T01:51:40.970Z,32.33
2022-11-25T01:52:14.404Z,32.41
2022-11-25T01:52:46.222Z,32.62
2022-11-25T01:53:18.197Z,32.53
2022-11-25T01:53:49.774Z,32.47
2022-11-25T01:54:22.210Z,32.71
2022-11-25T01:54:56.577Z,32.55
2022-11-25T01:55:28.498Z,32.25
2022-11-25T01:56:00.519Z,32.28
2022-11-25T01:56:33.305Z,32.16
2022-11-25T01:57:07.598Z,32.42
2022-11-25T01:57:43.986Z,32.51
2022-11-25T01:58:16.261Z,32.30
2022-11-25T01:58:47.940Z,32.19
2022-11-25T01:59:19.425Z,32.29
2022-11-25T01:59:51.101Z,32.59
2022-11-25T02:00:22.585Z,32.77
2022-11-25T02:00:54.130Z,32.23
2022-11-25T02:01:25.681Z,32.35
2022-11-25T02:01:57.293Z,32.32
2022-11-25T02:02:28.895Z,32.23
2022-11-25T02:03:00.502Z,32.28
2022-11-25T02:03:37.286Z,32.58
2022-11-25T02:04:08.716Z,32.59
2022-11-25T02:04:40.149Z,32.27
2022-11-25T02:05:12.740Z,32.24
2022-11-25T02:05:46.854Z,32.28
2022-11-25T02:06:25.339Z,32.23
2022-11-25T02:06:57.935Z,32.29
2022-11-25T02:07:36.188Z,32.39
2022-11-25T02:08:07.739Z,32.56
2022-11-25T02:08:39.264Z,32.20
2022-11-25T02:09:10.765Z,32.26
2022-11-25T02:09:42.271Z,32.24
2022-11-25T02:10:18.253Z,32.23
2022-11-25T02:10:49.809Z,32.34
2022-11-25T02:11:21.306Z,32.41
2022-11-25T02:11:52.818Z,32.30
2022-11-25T02:12:24.352Z,32.23
2022-11-25T02:12:55.870Z,32.23
2022-11-25T02:13:27.296Z,32.21
2022-11-25T02:13:58.698Z,32.20
2022-11-25T02:14:30.304Z,32.15
2022-11-25T02:15:01.839Z,32.44
2022-11-25T02:15:33.626Z,32.26
2022-11-25T02:16:05.262Z,32.40
2022-11-25T02:16:36.763Z,32.17
2022-11-25T02:17:08.254Z,32.36
2022-11-25T02:17:39.806Z,32.47
2022-11-25T02:18:11.345Z,32.50
2022-11-25T02:18:42.856Z,32.35
2022-11-25T02:19:23.544Z,32.24
2022-11-25T02:20:05.202Z,32.40
2022-11-25T02:20:36.663Z,32.14
2022-11-25T02:21:08.198Z,32.53
2022-11-25T02:21:41.286Z,32.55
2022-11-25T02:22:15.599Z,32.11
2022-11-25T02:22:49.858Z,32.48
2022-11-25T02:23:30.364Z,32.14
2022-11-25T02:24:10.164Z,32.20
2022-11-25T02:24:43.664Z,32.22
2022-11-25T02:25:19.951Z,32.47
2022-11-25T02:25:51.435Z,32.36
2022-11-25T02:26:22.906Z,32.40
2022-11-25T02:26:54.340Z,32.08
2022-11-25T02:27:25.836Z,32.44
2022-11-25T02:28:01.788Z,32.11
2022-11-25T02:28:33.379Z,32.16
2022-11-25T02:29:04.929Z,32.37
2022-11-25T02:29:36.444Z,32.11
2022-11-25T02:30:08.298Z,32.38
2022-11-25T02:30:39.909Z,32.05
2022-11-25T02:31:11.356Z,32.04
2022-11-25T02:31:43.776Z,32.15
2022-11-25T02:32:15.310Z,32.06
2022-11-25T02:32:47.217Z,32.11
2022-11-25T02:33:18.805Z,32.33
2022-11-25T02:33:50.312Z,32.25
2022-11-25T02:34:21.881Z,32.16
2022-11-25T02:34:53.374Z,32.23
2022-11-25T02:35:28.918Z,32.48
2022-11-25T02:36:01.921Z,32.23
2022-11-25T02:36:33.459Z,32.37
2022-11-25T02:37:04.909Z,32.16
2022-11-25T02:37:36.423Z,32.15
2022-11-25T02:38:09.118Z,32.34
2022-11-25T02:38:44.071Z,31.97
2022-11-25T02:39:15.700Z,32.25
2022-11-25T02:39:47.185Z,32.05
2022-11-25T02:40:18.668Z,32.40
2022-11-25T02:40:54.055Z,32.30
2022-11-25T02:41:25.576Z,32.05
2022-11-25T02:41:57.240Z,32.38
2022-11-25T02:42:28.669Z,32.47
2022-11-25T02:43:00.236Z,32.01
2022-11-25T02:43:31.853Z,32.10
2022-11-25T02:44:03.629Z,32.39
2022-11-25T02:44:35.320Z,32.01
2022-11-25T02:45:08.254Z,32.24
2022-11-25T02:45:42.126Z,32.03
2022-11-25T02:46:20.293Z,32.05
2022-11-25T02:46:53.479Z,32.17
2022-11-25T02:47:24.941Z,32.23
2022-11-25T02:47:56.407Z,32.25
2022-11-25T02:48:52.795Z,32.21
2022-11-25T02:49:20.096Z,31.99
2022-11-25T02:49:51.598Z,32.18
2022-11-25T02:50:23.131Z,32.13
2022-11-25T02:50:54.722Z,32.14
2022-11-25T02:51:27.150Z,32.17
2022-11-25T02:51:58.639Z,32.04
2022-11-25T02:52:30.106Z,32.04
2022-11-25T02:53:01.654Z,32.01
2022-11-25T02:53:33.245Z,32.37
2022-11-25T02:54:04.695Z,32.15
2022-11-25T02:54:36.330Z,32.11
2022-11-25T02:55:08.078Z,32.33
2022-11-25T02:55:39.549Z,31.90
2022-11-25T02:56:11.310Z,32.19
2022-11-25T02:56:42.871Z,32.01
2022-11-25T02:57:14.389Z,32.19
2022-11-25T02:57:45.828Z,32.01
2022-11-25T02:58:17.305Z,32.17
2022-11-25T02:58:48.809Z,32.02
2022-11-25T02:59:20.313Z,32.29
2022-11-25T02:59:51.939Z,32.04
2022-11-25T03:00:23.469Z,31.91
2022-11-25T03:00:55.059Z,32.02
2022-11-25T03:01:26.693Z,32.19
2022-11-25T03:01:58.335Z,32.00
2022-11-25T03:02:29.975Z,32.37
2022-11-25T03:03:01.585Z,31.95
2022-11-25T03:03:33.009Z,32.11
2022-11-25T03:04:04.591Z,32.39
2022-11-25T03:04:36.312Z,32.08
2022-11-25T03:05:08.071Z,32.23
2022-11-25T03:05:39.642Z,32.01
2022-11-25T03:06:11.199Z,31.95
2022-11-25T03:06:42.581Z,32.04
2022-11-25T03:07:14.116Z,32.26
2022-11-25T03:07:45.695Z,32.24
2022-11-25T03:08:17.325Z,32.07
2022-11-25T03:08:48.894Z,32.11
2022-11-25T03:09:20.452Z,32.26
2022-11-25T03:09:51.964Z,32.17
2022-11-25T03:10:23.575Z,32.09
2022-11-25T03:10:55.121Z,32.00
2022-11-25T03:11:26.625Z,32.28
2022-11-25T03:11:58.121Z,31.92
2022-11-25T03:12:29.686Z,32.29
2022-11-25T03:13:01.138Z,32.20
2022-11-25T03:13:32.571Z,32.29
2022-11-25T03:14:04.045Z,31.89
2022-11-25T03:14:35.817Z,31.88
2022-11-25T03:15:07.799Z,32.25
2022-11-25T03:15:39.377Z,31.94
2022-11-25T03:16:10.964Z,31.97
2022-11-25T03:16:42.521Z,32.35
2022-11-25T03:17:14.406Z,32.06
2022-11-25T03:17:45.870Z,32.27
2022-11-25T03:18:17.372Z,32.24
2022-11-25T03:18:48.881Z,31.85
2022-11-25T03:19:20.328Z,32.25
2022-11-25T03:19:51.848Z,32.15
2022-11-25T03:20:23.395Z,31.95
2022-11-25T03:20:54.847Z,31.94
2022-11-25T03:21:26.391Z,31.89
2022-11-25T03:21:57.950Z,31.90
2022-11-25T03:22:29.446Z,31.96
2022-11-25T03:23:01.085Z,31.97
2022-11-25T03:23:32.573Z,31.99
2022-11-25T03:24:04.115Z,31.96
2022-11-25T03:24:35.939Z,31.89
2022-11-25T03:25:07.687Z,32.16
2022-11-25T03:25:39.184Z,31.90
2022-11-25T03:26:10.717Z,31.89
2022-11-25T03:26:42.280Z,32.10
2022-11-25T03:27:13.806Z,31.90
2022-11-25T03:27:45.289Z,32.21
2022-11-25T03:28:16.721Z,31.78
2022-11-25T03:28:48.150Z,32.13
2022-11-25T03:29:19.694Z,31.96
2022-11-25T03:29:51.207Z,31.92
2022-11-25T03:30:23.783Z,31.87
2022-11-25T03:30:55.318Z,32.11
2022-11-25T03:31:26.905Z,31.94
2022-11-25T03:31:58.453Z,31.89
2022-11-25T03:32:29.951Z,32.32
2022-11-25T03:33:01.527Z,31.73
2022-11-25T03:33:33.009Z,32.21
2022-11-25T03:34:04.484Z,32.02
2022-11-25T03:34:36.073Z,31.86
2022-11-25T03:35:07.868Z,32.12
2022-11-25T03:35:39.331Z,31.95
2022-11-25T03:36:10.797Z,32.16
2022-11-25T03:36:42.298Z,31.84
2022-11-25T03:37:13.869Z,31.91
2022-11-25T03:37:45.455Z,32.00
2022-11-25T03:38:16.880Z,31.82
2022-11-25T03:38:48.347Z,31.77
2022-11-25T03:39:19.804Z,32.16
2022-11-25T03:39:51.422Z,31.68
2022-11-25T03:40:22.905Z,31.94
2022-11-25T03:40:54.395Z,31.88
2022-11-25T03:41:25.954Z,31.78
2022-11-25T03:41:57.382Z,32.05
2022-11-25T03:42:28.932Z,31.73
2022-11-25T03:43:00.366Z,31.72
2022-11-25T03:43:31.761Z,31.83
2022-11-25T03:44:03.230Z,31.73
2022-11-25T03:44:35.053Z,31.74
2022-11-25T03:45:07.143Z,31.79
2022-11-25T03:47:54.341Z,31.79
2022-11-25T03:48:25.907Z,31.76
2022-11-25T03:48:57.481Z,31.79
2022-11-25T03:49:29.192Z,31.86
2022-11-25T03:50:00.742Z,31.95
2022-11-25T03:50:32.197Z,31.79
2022-11-25T03:51:03.709Z,31.81
2022-11-25T03:51:35.197Z,31.84
2022-11-25T03:52:07.104Z,31.85
2022-11-25T03:52:38.646Z,32.06
2022-11-25T03:53:10.229Z,32.01
2022-11-25T03:53:41.759Z,32.22
2022-11-25T03:54:13.394Z,32.11
2022-11-25T03:54:44.934Z,31.75
2022-11-25T03:55:16.670Z,31.91
2022-11-25T03:55:48.384Z,31.82
2022-11-25T03:56:20.017Z,32.02
2022-11-25T03:56:51.566Z,31.86
2022-11-25T03:57:23.133Z,31.91
2022-11-25T03:57:54.620Z,31.75
2022-11-25T03:58:26.241Z,31.87
2022-11-25T03:58:57.974Z,32.10
2022-11-25T03:59:29.559Z,31.73
2022-11-25T04:00:01.310Z,31.80
2022-11-25T04:00:32.761Z,31.80
2022-11-25T04:01:04.712Z,32.15
2022-11-25T04:01:40.053Z,32.16
2022-11-25T04:02:14.653Z,31.96
2022-11-25T04:02:46.443Z,31.81
2022-11-25T04:03:18.033Z,31.73
2022-11-25T04:03:49.560Z,31.73
2022-11-25T04:04:21.187Z,32.05
2022-11-25T04:04:52.959Z,32.05
2022-11-25T04:05:24.539Z,31.94
2022-11-25T04:05:56.028Z,31.74
2022-11-25T04:06:27.506Z,31.63
2022-11-25T04:06:59.073Z,31.71
2022-11-25T04:07:30.624Z,31.70
2022-11-25T04:08:02.211Z,31.70
2022-11-25T04:08:33.840Z,31.78
2022-11-25T04:09:06.009Z,32.11
2022-11-25T04:09:37.645Z,32.11
2022-11-25T04:10:09.395Z,32.08
2022-11-25T04:10:40.937Z,31.92
2022-11-25T04:11:12.438Z,31.91
2022-11-25T04:11:43.989Z,31.80
2022-11-25T04:12:15.529Z,31.82
2022-11-25T04:12:47.145Z,31.93
2022-11-25T04:13:18.914Z,31.67
2022-11-25T04:13:50.358Z,31.78
2022-11-25T04:14:21.897Z,32.00
2022-11-25T04:14:53.397Z,31.68
2022-11-25T04:15:24.844Z,31.72
2022-11-25T04:15:56.344Z,31.72
2022-11-25T04:16:27.929Z,32.00
2022-11-25T04:16:59.425Z,31.66
2022-11-25T04:17:30.903Z,31.78
2022-11-25T04:18:02.423Z,31.80
2022-11-25T04:18:33.921Z,31.50
2022-11-25T04:19:05.358Z,31.71
2022-11-25T04:19:36.944Z,31.72
2022-11-25T04:20:08.576Z,32.05
2022-11-25T04:20:40.114Z,31.56
2022-11-25T04:21:11.609Z,31.69
2022-11-25T04:21:44.982Z,32.01
2022-11-25T04:22:19.612Z,31.72
2022-11-25T04:22:51.068Z,31.73
2022-11-25T04:23:22.502Z,31.87
2022-11-25T04:23:54.010Z,31.95
2022-11-25T04:24:25.505Z,31.62
2022-11-25T04:24:56.960Z,31.58
2022-11-25T04:25:28.479Z,31.96
2022-11-25T04:26:00.034Z,31.63
2022-11-25T04:26:31.487Z,31.60
2022-11-25T04:27:02.962Z,31.63
2022-11-25T04:27:34.382Z,31.64
2022-11-25T04:28:05.893Z,31.59
2022-11-25T04:28:37.489Z,31.67
2022-11-25T04:29:09.076Z,31.66
2022-11-25T04:29:40.567Z,31.73
2022-11-25T04:30:12.262Z,31.74
2022-11-25T04:30:43.822Z,31.85
2022-11-25T04:31:15.386Z,31.86
2022-11-25T04:31:47.067Z,31.68
2022-11-25T04:32:18.511Z,32.00
2022-11-25T04:32:49.993Z,32.04
2022-11-25T04:33:21.547Z,31.90
2022-11-25T04:33:53.173Z,31.80
2022-11-25T04:34:24.745Z,32.03
2022-11-25T04:34:56.399Z,31.70
2022-11-25T04:35:27.905Z,32.06
2022-11-25T04:35:59.383Z,31.76
2022-11-25T04:36:30.827Z,31.94
2022-11-25T04:37:02.349Z,31.82
2022-11-25T04:37:33.845Z,32.05
2022-11-25T04:38:05.365Z,31.76
2022-11-25T04:38:36.874Z,31.89
2022-11-25T04:39:08.352Z,32.00
2022-11-25T04:39:39.738Z,31.58
2022-11-25T04:40:11.455Z,31.83
2022-11-25T04:40:43.045Z,31.68
2022-11-25T04:41:14.466Z,31.76
2022-11-25T04:41:45.936Z,31.76
2022-11-25T04:42:17.572Z,31.67
2022-11-25T04:42:49.041Z,31.83
2022-11-25T04:43:20.492Z,31.82
2022-11-25T04:43:52.071Z,31.71
2022-11-25T04:44:23.525Z,31.67
2022-11-25T04:45:14.483Z,31.63
2022-11-25T04:46:06.797Z,31.94
2022-11-25T04:46:40.279Z,31.69
2022-11-25T04:47:11.845Z,31.74
2022-11-25T04:47:43.600Z,31.85
2022-11-25T04:48:15.071Z,31.98
2022-11-25T04:48:46.590Z,31.70
2022-11-25T04:49:18.076Z,31.91
2022-11-25T04:49:49.545Z,31.79
2022-11-25T04:50:21.551Z,31.60
2022-11-25T04:50:53.189Z,31.94
2022-11-25T04:51:24.714Z,31.70
2022-11-25T04:51:56.250Z,31.60
2022-11-25T04:52:27.684Z,31.77
2022-11-25T04:52:59.190Z,31.85
2022-11-25T04:53:30.690Z,31.65
2022-11-25T04:54:02.243Z,31.66
2022-11-25T04:54:34.072Z,31.68
2022-11-25T04:55:06.031Z,32.12
2022-11-25T04:55:37.560Z,31.97
2022-11-25T04:56:09.238Z,31.91
2022-11-25T04:56:40.771Z,31.69
2022-11-25T04:57:15.078Z,32.06
2022-11-25T04:57:46.485Z,31.69
2022-11-25T04:58:17.902Z,31.94
2022-11-25T04:58:49.377Z,31.82
2022-11-25T04:59:20.910Z,32.05
2022-11-25T04:59:52.397Z,31.75
2022-11-25T05:00:23.849Z,31.76
2022-11-25T05:00:55.267Z,31.81
2022-11-25T05:01:26.914Z,31.93
2022-11-25T05:01:58.596Z,31.78
2022-11-25T05:02:30.273Z,31.81
2022-11-25T05:03:01.730Z,32.11
2022-11-25T05:03:33.215Z,31.87
2022-11-25T05:04:04.753Z,31.64
2022-11-25T05:04:36.479Z,31.61
2022-11-25T05:05:08.239Z,31.71
2022-11-25T05:05:39.757Z,31.67
2022-11-25T05:06:11.218Z,31.77
2022-11-25T05:06:42.665Z,31.86
2022-11-25T05:07:14.210Z,31.66
2022-11-25T05:07:46.013Z,32.02
2022-11-25T05:08:17.575Z,32.15
2022-11-25T05:08:49.231Z,31.71
2022-11-25T05:09:20.858Z,31.92
2022-11-25T05:09:52.259Z,31.76
2022-11-25T05:10:23.782Z,31.81
2022-11-25T05:10:55.343Z,31.71
2022-11-25T05:11:26.789Z,32.14
2022-11-25T05:11:58.215Z,32.11
2022-11-25T05:12:29.685Z,31.73
2022-11-25T05:13:01.173Z,31.85
2022-11-25T05:13:32.580Z,32.16
2022-11-25T05:14:04.051Z,31.89
2022-11-25T05:14:35.908Z,31.91
2022-11-25T05:15:07.968Z,32.06
2022-11-25T05:15:39.442Z,31.99
2022-11-25T05:16:11.014Z,31.82
2022-11-25T05:16:42.671Z,31.85
2022-11-25T05:17:15.842Z,31.84
2022-11-25T05:17:47.260Z,31.85
2022-11-25T05:18:18.741Z,31.98
2022-11-25T05:18:50.278Z,31.88
2022-11-25T05:19:21.837Z,31.65
2022-11-25T05:19:53.292Z,31.72
2022-11-25T05:20:25.036Z,31.93
2022-11-25T05:21:00.437Z,31.84
2022-11-25T05:21:32.605Z,32.14
2022-11-25T05:22:04.089Z,31.81
2022-11-25T05:22:35.717Z,31.92
2022-11-25T05:23:07.384Z,31.99
2022-11-25T05:23:38.887Z,32.00
2022-11-25T05:24:10.373Z,32.10
2022-11-25T05:24:41.916Z,31.74
2022-11-25T05:25:13.488Z,31.71
2022-11-25T05:25:45.015Z,31.88
2022-11-25T05:26:16.429Z,32.12
2022-11-25T05:26:48.080Z,31.78
2022-11-25T05:27:19.558Z,32.06
2022-11-25T05:27:51.103Z,31.91
2022-11-25T05:28:22.598Z,31.85
2022-11-25T05:28:54.084Z,32.24
2022-11-25T05:29:25.507Z,32.20
2022-11-25T05:29:56.920Z,31.90
2022-11-25T05:30:29.016Z,32.16
2022-11-25T05:31:00.573Z,31.79
2022-11-25T05:31:32.060Z,32.00
2022-11-25T05:32:03.860Z,32.20
2022-11-25T05:32:35.345Z,31.85
2022-11-25T05:33:06.935Z,32.23
2022-11-25T05:33:38.406Z,32.14
2022-11-25T05:34:09.858Z,32.07
2022-11-25T05:34:41.372Z,31.84
2022-11-25T05:35:12.859Z,31.79
2022-11-25T05:35:44.360Z,31.80
2022-11-25T05:36:15.854Z,32.14
2022-11-25T05:36:47.297Z,31.85
2022-11-25T05:37:22.862Z,31.98
2022-11-25T05:37:55.836Z,32.05
2022-11-25T05:38:27.297Z,31.88
2022-11-25T05:38:59.010Z,32.04
2022-11-25T05:39:30.547Z,32.08
2022-11-25T05:40:02.394Z,32.02
2022-11-25T05:40:33.900Z,31.96
2022-11-25T05:41:05.952Z,31.89
2022-11-25T05:41:37.345Z,32.00
2022-11-25T05:42:08.838Z,32.04
2022-11-25T05:42:40.314Z,31.78
2022-11-25T05:43:11.978Z,31.97
2022-11-25T05:43:43.481Z,32.18
2022-11-25T05:44:19.724Z,31.88
2022-11-25T05:44:54.056Z,31.73
2022-11-25T05:45:25.458Z,31.82
2022-11-25T05:45:56.952Z,32.16
2022-11-25T05:46:28.916Z,31.82
2022-11-25T05:47:00.592Z,32.20
2022-11-25T05:47:32.214Z,32.26
2022-11-25T05:48:03.677Z,32.06
2022-11-25T05:48:35.230Z,31.83
2022-11-25T05:49:06.925Z,31.86
2022-11-25T05:49:38.411Z,31.73
2022-11-25T05:50:10.004Z,32.20
2022-11-25T05:50:41.728Z,31.84
2022-11-25T05:51:13.226Z,31.86
2022-11-25T05:51:44.860Z,31.80
2022-11-25T05:52:16.379Z,32.15
2022-11-25T05:52:47.972Z,32.15
2022-11-25T05:53:19.592Z,31.94
2022-11-25T05:53:51.442Z,31.80
2022-11-25T05:54:22.991Z,31.96
2022-11-25T05:54:57.304Z,32.04
2022-11-25T05:55:29.157Z,31.86
2022-11-25T05:56:01.624Z,31.99
2022-11-25T05:56:33.179Z,31.90
2022-11-25T05:57:04.642Z,32.05
2022-11-25T05:57:36.256Z,32.02
2022-11-25T05:58:07.800Z,32.21
2022-11-25T05:58:39.202Z,32.11
2022-11-25T05:59:10.717Z,31.88
2022-11-25T05:59:42.287Z,31.83
2022-11-25T06:00:14.041Z,31.92
2022-11-25T06:00:45.489Z,31.93
2022-11-25T06:01:17.029Z,32.12
2022-11-25T06:01:48.626Z,32.15
2022-11-25T06:02:20.341Z,31.90
2022-11-25T06:02:52.111Z,31.84
2022-11-25T06:03:24.412Z,32.06
2022-11-25T06:03:55.918Z,32.01
2022-11-25T06:04:27.384Z,32.15
2022-11-25T06:04:58.977Z,32.08
2022-11-25T06:05:30.429Z,31.83
2022-11-25T06:06:01.878Z,32.10
2022-11-25T06:06:33.393Z,31.82
2022-11-25T06:07:04.853Z,31.93
2022-11-25T06:07:36.423Z,31.76
2022-11-25T06:08:08.035Z,32.04
2022-11-25T06:08:39.653Z,32.18
2022-11-25T06:09:11.120Z,31.92
2022-11-25T06:09:42.703Z,31.89
2022-11-25T06:10:14.161Z,31.77
2022-11-25T06:10:45.654Z,31.80
2022-11-25T06:11:17.133Z,32.09
2022-11-25T06:11:48.815Z,31.84
2022-11-25T06:12:21.054Z,31.91
2022-11-25T06:12:52.520Z,32.04
2022-11-25T06:13:24.236Z,32.21
2022-11-25T06:13:56.343Z,32.13
2022-11-25T06:14:27.945Z,31.75
2022-11-25T06:14:59.422Z,32.07
2022-11-25T06:15:30.975Z,31.80
2022-11-25T06:16:07.965Z,31.94
2022-11-25T06:16:40.631Z,32.11
2022-11-25T06:17:12.120Z,31.92
2022-11-25T06:17:43.606Z,31.97
2022-11-25T06:18:15.555Z,31.73
2022-11-25T06:18:47.087Z,32.08
2022-11-25T06:19:18.643Z,31.75
2022-11-25T06:19:50.159Z,31.86
2022-11-25T06:20:21.648Z,31.83
2022-11-25T06:20:56.702Z,31.93
2022-11-25T06:21:28.292Z,31.82
2022-11-25T06:21:59.744Z,31.82
2022-11-25T06:22:31.262Z,31.63
2022-11-25T06:23:02.840Z,32.08
2022-11-25T06:23:34.631Z,32.16
2022-11-25T06:24:06.326Z,31.84
2022-11-25T06:24:37.987Z,31.62
2022-11-25T06:25:09.766Z,32.19
2022-11-25T06:25:41.208Z,32.11
2022-11-25T06:26:16.706Z,31.79
2022-11-25T06:26:48.179Z,32.06
2022-11-25T06:27:19.744Z,31.97
2022-11-25T06:28:11.796Z,32.23
2022-11-25T06:28:42.858Z,32.01
2022-11-25T06:29:14.419Z,31.90
2022-11-25T06:29:45.923Z,31.90
2022-11-25T06:30:17.580Z,31.94
2022-11-25T06:30:49.113Z,32.14
2022-11-25T06:31:21.421Z,31.85
2022-11-25T06:31:52.990Z,31.79
2022-11-25T06:32:24.594Z,31.99
2022-11-25T06:32:56.038Z,31.96
2022-11-25T06:33:27.696Z,31.77
2022-11-25T06:33:59.075Z,31.86
2022-11-25T06:34:30.620Z,31.83
2022-11-25T06:35:02.064Z,31.84
2022-11-25T06:35:33.661Z,31.78
2022-11-25T06:36:05.609Z,31.77
2022-11-25T06:36:37.066Z,31.73
2022-11-25T06:37:08.827Z,31.91
2022-11-25T06:37:40.385Z,31.83
2022-11-25T06:38:11.832Z,32.18
2022-11-25T06:38:53.096Z,32.14
2022-11-25T06:39:24.563Z,32.00
2022-11-25T06:39:56.127Z,31.84
2022-11-25T06:40:27.721Z,32.03
2022-11-25T06:41:00.502Z,32.07
2022-11-25T06:41:32.108Z,31.94
2022-11-25T06:42:03.747Z,32.07
2022-11-25T06:42:35.285Z,31.88
2022-11-25T06:43:06.763Z,32.11
2022-11-25T06:43:38.240Z,31.98
2022-11-25T06:44:09.730Z,31.97
2022-11-25T06:44:41.239Z,31.92
2022-11-25T06:45:12.813Z,31.94
2022-11-25T06:45:44.342Z,31.86
2022-11-25T06:46:22.785Z,32.13
2022-11-25T06:46:56.213Z,32.21
2022-11-25T06:47:27.772Z,32.15
2022-11-25T06:47:59.319Z,32.23
2022-11-25T06:48:30.904Z,32.03
2022-11-25T06:49:02.346Z,32.19
2022-11-25T06:49:34.139Z,32.23
2022-11-25T06:50:06.050Z,32.04
2022-11-25T06:50:37.698Z,32.15
2022-11-25T06:51:10.144Z,31.92
2022-11-25T06:51:41.645Z,32.09
2022-11-25T06:52:13.106Z,32.12
2022-11-25T06:52:44.621Z,32.12
2022-11-25T06:53:19.874Z,31.76
2022-11-25T06:53:54.523Z,31.85
2022-11-25T06:54:26.027Z,32.06
2022-11-25T06:54:57.660Z,32.06
2022-11-25T06:55:29.216Z,32.03
2022-11-25T06:56:11.361Z,32.17
2022-11-25T06:56:42.857Z,31.97
2022-11-25T06:57:16.516Z,32.09